Manchester, MI (48158)

7:46 AM EST on February 14, 2016 (GMT -0500)
Chuck's House | | Change Station
CLOSE
Current Station
Personal Weather Station
Location: Manchester, MI
Elevation: 899 ft
Nearby Weather Stations

Elev 899 ft 42.15 °N, 84.03 °W | Updated 7 minutes ago

Mostly Cloudy
Mostly Cloudy
-3.8 °F
Feels Like -4 °F
N
0.0
Wind Variable Wind from NW

Today
High -- | Low -- °F
--% Chance of Precip.
Yesterday
High -- | Low -- °F
Precip. -- in
Pressure 30.51 in
Visibility 10.0 miles
Clouds Clear
Windchill -4 °F
Dew Point -7 °F
Humidity 86%
Rainfall 0.00 in
Snow Depth Not available.
7:34 AM 6:06 PM
Waxing Crescent, 41% visible
METAR KARB 141153Z AUTO 00000KT 10SM CLR M22/M25 A3044 RMK AO2 SLP330 I6000 T12221250 11189 21228 57009 TSNO
Pressure 30.51 in
Visibility 10.0 miles
Clouds Clear
Windchill -4 °F
Dew Point -7 °F
Humidity 86%
Rainfall 0.00 in
Snow Depth Not available.
7:34 AM 6:06 PM
Waxing Crescent, 41% visible
METAR KARB 141153Z AUTO 00000KT 10SM CLR M22/M25 A3044 RMK AO2 SLP330 I6000 T12221250 11189 21228 57009 TSNO

10-Day Weather Forecast

Almanac

Astronomy

Feb. 14, 2016 Rise Set
Actual Time
Civil Twilight
Nautical Twilight
Astronomical Twilight
Moon
Length of Visible Light
Length of Day
Tomorrow will be .
, % of the Moon is Illuminated

Today's Extremes

State Highs State Lows

Community

WunderPhotos

Upload Photos

1,892,775 photos uploaded!

WunderBlog® & News

Nearby

Air Quality

  Air Quality AQ Index Pollutant
Not available.

Snow Depth

Station Depth Elevation

Earthquake Activity

City Distance Mag. Time & Date
Minimum magnitude displayed is 2.5.

Coastal Water Temperatures

Place Temperature

Stations

Nearby Weather Stations

Station Location Temp. Windchill Dew Point Humidity Wind Precip. Elev Updated Type
                   

Watches & Warnings

There are currently no watches in effect.